Wetterdaten: Sonntag, 22.09.2013
Datum Zeit Temperatur Luftfeuchte Luftdruck Regen Wind Richtung Richtung Taupunkt Windchill Windben
22.09.2013 00:00 5,5 C 91 % 1028,2 hPa 0,0 l/m 0,0 km/h (0 Bft) S-SW 202 4,2 C 5,6 C 0,0 km/h (0 Bft)
22.09.2013 00:05 5,7 C 91 % 1028,2 hPa 0,0 l/m 0,0 km/h (0 Bft) O-SO 112 4,3 C 5,6 C 0,0 km/h (0 Bft)
22.09.2013 00:10 5,7 C 91 % 1028,2 hPa 0,0 l/m 0,0 km/h (0 Bft) SO 135 4,3 C 5,7 C 0,0 km/h (0 Bft)
22.09.2013 00:15 5,8 C 91 % 1028,2 hPa 0,0 l/m 0,0 km/h (0 Bft) SO 135 4,4 C 5,6 C 0,0 km/h (0 Bft)
22.09.2013 00:20 5,5 C 91 % 1028,2 hPa 0,0 l/m 0,0 km/h (0 Bft) N 360 4,2 C 5,6 C 0,0 km/h (0 Bft)
22.09.2013 00:25 5,4 C 91 % 1028,2 hPa 0,0 l/m 0,0 km/h (0 Bft) N-NO 22 4,1 C 5,6 C 0,0 km/h (0 Bft)
22.09.2013 00:30 6,2 C 91 % 1028,1 hPa 0,0 l/m 0,0 km/h (0 Bft) O-SO 112 4,8 C 5,8 C 0,0 km/h (0 Bft)
22.09.2013 00:35 6,3 C 91 % 1028,1 hPa 0,0 l/m 0,0 km/h (0 Bft) S-SO 157 4,9 C 5,9 C 0,0 km/h (0 Bft)
22.09.2013 00:40 6,4 C 91 % 1028,1 hPa 0,0 l/m 0,3 km/h (0 Bft) O 90 5,0 C 6,1 C 0,0 km/h (0 Bft)
22.09.2013 00:45 6,4 C 91 % 1028,1 hPa 0,0 l/m 0,3 km/h (0 Bft) S 180 5,0 C 6,1 C 0,0 km/h (0 Bft)
22.09.2013 00:50 6,0 C 91 % 1028,4 hPa 0,0 l/m 0,0 km/h (0 Bft) S 180 4,6 C 6,1 C 0,0 km/h (0 Bft)
22.09.2013 00:55 5,8 C 93 % 1028,4 hPa 0,0 l/m 0,0 km/h (0 Bft) S 180 4,8 C 6,0 C 0,0 km/h (0 Bft)
22.09.2013 01:00 5,6 C 92 % 1028,4 hPa 0,0 l/m 0,0 km/h (0 Bft) NO 45 4,4 C 5,9 C 0,0 km/h (0 Bft)
22.09.2013 01:05 5,5 C 92 % 1028,4 hPa 0,0 l/m 0,0 km/h (0 Bft) NO 45 4,3 C 5,8 C 0,0 km/h (0 Bft)
22.09.2013 01:10 5,4 C 92 % 1028,3 hPa 0,0 l/m 0,0 km/h (0 Bft) NO 45 4,2 C 5,5 C 0,0 km/h (0 Bft)
22.09.2013 01:15 5,5 C 92 % 1028,3 hPa 0,0 l/m 0,0 km/h (0 Bft) NO 45 4,3 C 5,5 C 0,0 km/h (0 Bft)
22.09.2013 01:20 5,4 C 92 % 1028,3 hPa 0,0 l/m 0,0 km/h (0 Bft) NO 45 4,2 C 5,3 C 0,0 km/h (0 Bft)
22.09.2013 01:25 5,4 C 92 % 1028,3 hPa 0,0 l/m 0,0 km/h (0 Bft) NO 45 4,2 C 5,2 C 0,0 km/h (0 Bft)
22.09.2013 01:30 5,2 C 92 % 1028,3 hPa 0,0 l/m 0,0 km/h (0 Bft) NO 45 4,0 C 4,9 C 0,0 km/h (0 Bft)
22.09.2013 01:35 5,2 C 92 % 1028,3 hPa 0,0 l/m 0,0 km/h (0 Bft) N-NO 22 4,0 C 4,9 C 0,0 km/h (0 Bft)
22.09.2013 01:40 5,1 C 92 % 1028,3 hPa 0,0 l/m 0,0 km/h (0 Bft) NO 45 3,9 C 4,9 C 0,0 km/h (0 Bft)
22.09.2013 01:45 5,0 C 92 % 1028,3 hPa 0,0 l/m 0,0 km/h (0 Bft) NO 45 3,8 C 4,8 C 0,0 km/h (0 Bft)
22.09.2013 01:50 5,0 C 92 % 1028,3 hPa 0,0 l/m 0,0 km/h (0 Bft) N-NO 22 3,8 C 4,7 C 0,0 km/h (0 Bft)
22.09.2013 01:55 4,8 C 92 % 1028,3 hPa 0,0 l/m 0,0 km/h (0 Bft) N-NO 22 3,6 C 4,6 C 0,0 km/h (0 Bft)
22.09.2013 02:00 5,0 C 92 % 1028,3 hPa 0,0 l/m 0,0 km/h (0 Bft) N-NO 22 3,8 C 4,7 C 0,0 km/h (0 Bft)
22.09.2013 02:05 5,1 C 92 % 1028,3 hPa 0,0 l/m 0,0 km/h (0 Bft) N 360 3,9 C 4,8 C 0,0 km/h (0 Bft)
22.09.2013 02:10 5,0 C 92 % 1028,0 hPa 0,0 l/m 0,0 km/h (0 Bft) N-NO 22 3,8 C 5,0 C 0,0 km/h (0 Bft)
22.09.2013 02:15 4,8 C 92 % 1028,0 hPa 0,0 l/m 0,0 km/h (0 Bft) N-NO 22 3,6 C 5,0 C 0,0 km/h (0 Bft)
22.09.2013 02:20 4,7 C 93 % 1028,0 hPa 0,0 l/m 0,0 km/h (0 Bft) N-NO 22 3,7 C 4,9 C 0,0 km/h (0 Bft)
22.09.2013 02:25 4,8 C 93 % 1028,0 hPa 0,0 l/m 0,0 km/h (0 Bft) N-NO 22 3,8 C 4,9 C 0,0 km/h (0 Bft)
22.09.2013 02:30 4,4 C 92 % 1028,4 hPa 0,0 l/m 0,0 km/h (0 Bft) N-NO 22 3,2 C 4,8 C 0,0 km/h (0 Bft)
22.09.2013 02:35 4,5 C 92 % 1028,4 hPa 0,0 l/m 0,0 km/h (0 Bft) W 270 3,3 C 4,8 C 0,0 km/h (0 Bft)
22.09.2013 02:40 4,8 C 93 % 1028,4 hPa 0,0 l/m 0,0 km/h (0 Bft) SW 225 3,8 C 4,8 C 0,0 km/h (0 Bft)
22.09.2013 02:45 4,8 C 93 % 1028,4 hPa 0,0 l/m 0,0 km/h (0 Bft) S 180 3,8 C 4,9 C 0,0 km/h (0 Bft)
22.09.2013 02:50 4,7 C 93 % 1028,1 hPa 0,0 l/m 0,0 km/h (0 Bft) S 180 3,7 C 4,8 C 0,0 km/h (0 Bft)
22.09.2013 02:55 4,6 C 93 % 1028,1 hPa 0,0 l/m 0,0 km/h (0 Bft) S 180 3,6 C 4,6 C 0,0 km/h (0 Bft)
22.09.2013 03:00 4,3 C 93 % 1028,1 hPa 0,0 l/m 0,0 km/h (0 Bft) S-SO 157 3,3 C 4,4 C 0,0 km/h (0 Bft)
22.09.2013 03:05 4,3 C 93 % 1028,1 hPa 0,0 l/m 0,0 km/h (0 Bft) S-SO 157 3,3 C 4,4 C 0,0 km/h (0 Bft)
22.09.2013 03:10 4,7 C 93 % 1028,1 hPa 0,0 l/m 0,0 km/h (0 Bft) O-SO 112 3,7 C 4,4 C 0,0 km/h (0 Bft)
22.09.2013 03:15 4,7 C 93 % 1028,1 hPa 0,0 l/m 0,0 km/h (0 Bft) O 90 3,7 C 4,4 C 0,0 km/h (0 Bft)
22.09.2013 03:20 4,5 C 93 % 1028,1 hPa 0,0 l/m 0,0 km/h (0 Bft) SO 135 3,5 C 4,3 C 0,0 km/h (0 Bft)
22.09.2013 03:25 4,4 C 93 % 1028,1 hPa 0,0 l/m 0,0 km/h (0 Bft) S-SO 157 3,4 C 4,2 C 0,0 km/h (0 Bft)
22.09.2013 03:30 4,8 C 93 % 1028,5 hPa 0,0 l/m 0,0 km/h (0 Bft) NO 45 3,8 C 4,2 C 0,0 km/h (0 Bft)
22.09.2013 03:35 4,9 C 93 % 1028,5 hPa 0,0 l/m 0,0 km/h (0 Bft) NO 45 3,9 C 4,4 C 0,0 km/h (0 Bft)
22.09.2013 03:40 5,0 C 93 % 1028,5 hPa 0,0 l/m 0,0 km/h (0 Bft) NO 45 4,0 C 4,4 C 0,0 km/h (0 Bft)
22.09.2013 03:45 4,9 C 93 % 1028,5 hPa 0,0 l/m 0,0 km/h (0 Bft) NO 45 3,9 C 4,5 C 0,0 km/h (0 Bft)
22.09.2013 03:50 4,5 C 93 % 1028,4 hPa 0,0 l/m 0,0 km/h (0 Bft) NO 45 3,5 C 4,3 C 0,0 km/h (0 Bft)
22.09.2013 03:55 4,4 C 93 % 1028,4 hPa 0,0 l/m 0,0 km/h (0 Bft) NO 45 3,4 C 4,4 C 0,0 km/h (0 Bft)
22.09.2013 04:00 4,3 C 93 % 1028,4 hPa 0,0 l/m 0,0 km/h (0 Bft) NO 45 3,3 C 4,3 C 0,0 km/h (0 Bft)
22.09.2013 04:05 4,3 C 93 % 1028,4 hPa 0,0 l/m 0,0 km/h (0 Bft) NO 45 3,3 C 4,3 C 0,0 km/h (0 Bft)
22.09.2013 04:10 4,3 C 93 % 1027,9 hPa 0,0 l/m 0,0 km/h (0 Bft) NO 45 3,3 C 4,2 C 0,0 km/h (0 Bft)
22.09.2013 04:15 4,2 C 93 % 1027,9 hPa 0,0 l/m 0,0 km/h (0 Bft) SW 225 3,2 C 4,2 C 0,0 km/h (0 Bft)
22.09.2013 04:20 4,1 C 93 % 1027,9 hPa 0,0 l/m 0,0 km/h (0 Bft) S-SW 202 3,1 C 4,1 C 0,0 km/h (0 Bft)
22.09.2013 04:25 4,2 C 93 % 1027,9 hPa 0,0 l/m 0,0 km/h (0 Bft) S-SW 202 3,2 C 4,0 C 0,0 km/h (0 Bft)
22.09.2013 04:30 4,4 C 93 % 1028,4 hPa 0,0 l/m 0,0 km/h (0 Bft) W-NW 292 3,4 C 4,2 C 0,0 km/h (0 Bft)
22.09.2013 04:35 4,5 C 93 % 1028,4 hPa 0,0 l/m 0,0 km/h (0 Bft) NW 315 3,5 C 4,3 C 0,0 km/h (0 Bft)
22.09.2013 04:40 4,7 C 93 % 1028,4 hPa 0,0 l/m 0,0 km/h (0 Bft) N-NO 22 3,7 C 4,4 C 0,0 km/h (0 Bft)
22.09.2013 04:45 4,5 C 93 % 1028,4 hPa 0,0 l/m 0,0 km/h (0 Bft) N-NO 22 3,5 C 4,4 C 0,0 km/h (0 Bft)
22.09.2013 04:50 3,9 C 93 % 1028,1 hPa 0,0 l/m 0,0 km/h (0 Bft) N-NO 22 2,9 C 4,0 C 0,0 km/h (0 Bft)
22.09.2013 04:55 3,9 C 93 % 1028,1 hPa 0,0 l/m 0,0 km/h (0 Bft) N-NO 22 2,9 C 3,8 C 0,0 km/h (0 Bft)
22.09.2013 05:00 3,8 C 93 % 1028,1 hPa 0,0 l/m 0,0 km/h (0 Bft) N-NO 22 2,8 C 3,6 C 0,0 km/h (0 Bft)
22.09.2013 05:05 3,7 C 93 % 1028,1 hPa 0,0 l/m 0,0 km/h (0 Bft) N-NO 22 2,7 C 3,6 C 0,0 km/h (0 Bft)
22.09.2013 05:10 3,7 C 93 % 1027,8 hPa 0,0 l/m 0,0 km/h (0 Bft) N-NO 22 2,7 C 3,6 C 0,0 km/h (0 Bft)
22.09.2013 05:15 3,9 C 93 % 1027,8 hPa 0,0 l/m 0,0 km/h (0 Bft) NO 45 2,9 C 3,5 C 0,0 km/h (0 Bft)
22.09.2013 05:20 4,0 C 93 % 1027,8 hPa 0,0 l/m 0,0 km/h (0 Bft) N-NO 22 3,0 C 3,6 C 0,0 km/h (0 Bft)
22.09.2013 05:25 4,0 C 93 % 1027,8 hPa 0,0 l/m 0,0 km/h (0 Bft) N-NO 22 3,0 C 3,6 C 0,0 km/h (0 Bft)
22.09.2013 05:30 3,9 C 93 % 1027,9 hPa 0,0 l/m 0,0 km/h (0 Bft) NO 45 2,9 C 3,6 C 0,0 km/h (0 Bft)
22.09.2013 05:35 3,6 C 93 % 1027,9 hPa 0,0 l/m 0,0 km/h (0 Bft) NO 45 2,6 C 3,6 C 0,0 km/h (0 Bft)
22.09.2013 05:40 3,7 C 94 % 1027,9 hPa 0,0 l/m 0,0 km/h (0 Bft) N-NO 22 2,8 C 3,6 C 0,0 km/h (0 Bft)
22.09.2013 05:45 3,7 C 93 % 1027,9 hPa 0,0 l/m 0,0 km/h (0 Bft) N-NO 22 2,7 C 3,6 C 0,0 km/h (0 Bft)
22.09.2013 05:50 3,7 C 94 % 1027,9 hPa 0,0 l/m 0,0 km/h (0 Bft) NO 45 2,8 C 3,6 C 0,0 km/h (0 Bft)
22.09.2013 05:55 3,8 C 94 % 1027,9 hPa 0,0 l/m 0,0 km/h (0 Bft) N-NO 22 2,9 C 3,6 C 0,0 km/h (0 Bft)
22.09.2013 06:00 4,0 C 93 % 1027,9 hPa 0,0 l/m 0,0 km/h (0 Bft) NO 45 3,0 C 3,6 C 0,0 km/h (0 Bft)
22.09.2013 06:05 4,0 C 94 % 1027,9 hPa 0,0 l/m 0,0 km/h (0 Bft) NO 45 3,1 C 3,6 C 0,0 km/h (0 Bft)
22.09.2013 06:10 3,7 C 94 % 1027,9 hPa 0,0 l/m 0,0 km/h (0 Bft) NO 45 2,8 C 3,5 C 0,0 km/h (0 Bft)
22.09.2013 06:15 3,5 C 94 % 1027,9 hPa 0,0 l/m 0,0 km/h (0 Bft) NO 45 2,6 C 3,5 C 0,0 km/h (0 Bft)
22.09.2013 06:20 3,7 C 94 % 1027,9 hPa 0,0 l/m 0,0 km/h (0 Bft) NO 45 2,8 C 3,2 C 0,0 km/h (0 Bft)
22.09.2013 06:25 3,9 C 94 % 1027,9 hPa 0,0 l/m 0,0 km/h (0 Bft) NO 45 3,0 C 3,3 C 0,0 km/h (0 Bft)
22.09.2013 06:30 3,7 C 94 % 1027,8 hPa 0,0 l/m 0,0 km/h (0 Bft) N-NO 22 2,8 C 3,3 C 0,0 km/h (0 Bft)
22.09.2013 06:35 3,8 C 94 % 1027,8 hPa 0,0 l/m 0,0 km/h (0 Bft) N-NO 22 2,9 C 3,3 C 0,0 km/h (0 Bft)
22.09.2013 06:40 3,5 C 94 % 1027,8 hPa 0,0 l/m 0,0 km/h (0 Bft) N-NO 22 2,6 C 3,4 C 0,0 km/h (0 Bft)
22.09.2013 06:45 3,4 C 94 % 1027,8 hPa 0,0 l/m 0,0 km/h (0 Bft) N-NO 22 2,5 C 3,4 C 0,0 km/h (0 Bft)
22.09.2013 06:50 3,7 C 94 % 1027,8 hPa 0,0 l/m 0,0 km/h (0 Bft) NO 45 2,8 C 3,3 C 0,0 km/h (0 Bft)
22.09.2013 06:55 3,9 C 94 % 1027,8 hPa 0,0 l/m 0,0 km/h (0 Bft) N-NO 22 3,0 C 3,4 C 0,0 km/h (0 Bft)
22.09.2013 07:00 4,1 C 94 % 1027,8 hPa 0,0 l/m 0,2 km/h (0 Bft) NO 45 3,2 C 3,6 C 0,0 km/h (0 Bft)
22.09.2013 07:05 4,2 C 94 % 1027,8 hPa 0,0 l/m 0,2 km/h (0 Bft) NO 45 3,3 C 3,6 C 0,0 km/h (0 Bft)
22.09.2013 07:10 3,7 C 94 % 1027,9 hPa 0,0 l/m 0,0 km/h (0 Bft) N-NO 22 2,8 C 3,6 C 0,0 km/h (0 Bft)
22.09.2013 07:15 3,6 C 94 % 1027,9 hPa 0,0 l/m 0,0 km/h (0 Bft) N-NO 22 2,7 C 3,4 C 0,0 km/h (0 Bft)
22.09.2013 07:20 3,3 C 94 % 1027,9 hPa 0,0 l/m 0,0 km/h (0 Bft) NO 45 2,4 C 3,3 C 0,0 km/h (0 Bft)
22.09.2013 07:25 3,4 C 94 % 1027,9 hPa 0,0 l/m 0,0 km/h (0 Bft) N-NO 22 2,5 C 3,2 C 0,0 km/h (0 Bft)
22.09.2013 07:30 3,4 C 94 % 1028,1 hPa 0,0 l/m 0,0 km/h (0 Bft) N-NW 337 2,5 C 3,3 C 0,0 km/h (0 Bft)
22.09.2013 07:35 3,5 C 94 % 1028,1 hPa 0,0 l/m 0,0 km/h (0 Bft) NO 45 2,6 C 3,4 C 0,0 km/h (0 Bft)
22.09.2013 07:40 3,6 C 94 % 1028,1 hPa 0,0 l/m 0,0 km/h (0 Bft) NO 45 2,7 C 3,5 C 0,0 km/h (0 Bft)
22.09.2013 07:45 3,7 C 94 % 1028,1 hPa 0,0 l/m 0,0 km/h (0 Bft) NO 45 2,8 C 3,6 C 0,0 km/h (0 Bft)
22.09.2013 07:50 4,0 C 94 % 1027,9 hPa 0,0 l/m 0,0 km/h (0 Bft) N 360 3,1 C 3,8 C 0,0 km/h (0 Bft)
22.09.2013 07:55 4,2 C 94 % 1027,9 hPa 0,0 l/m 0,0 km/h (0 Bft) NO 45 3,3 C 4,0 C 0,0 km/h (0 Bft)
22.09.2013 08:00 4,6 C 95 % 1027,9 hPa 0,0 l/m 0,0 km/h (0 Bft) NO 45 3,9 C 4,4 C 0,0 km/h (0 Bft)
22.09.2013 08:05 4,8 C 95 % 1027,9 hPa 0,0 l/m 0,2 km/h (0 Bft) N-NO 22 4,1 C 4,4 C 0,0 km/h (0 Bft)
22.09.2013 08:10 5,3 C 95 % 1028,1 hPa 0,0 l/m 0,2 km/h (0 Bft) O-NO 67 4,6 C 5,3 C 0,0 km/h (0 Bft)
22.09.2013 08:15 5,6 C 95 % 1028,1 hPa 0,0 l/m 0,0 km/h (0 Bft) NO 45 4,9 C 5,5 C 0,0 km/h (0 Bft)
22.09.2013 08:20 5,8 C 95 % 1028,1 hPa 0,0 l/m 0,0 km/h (0 Bft) NO 45 5,1 C 5,9 C 0,0 km/h (0 Bft)
22.09.2013 08:25 5,9 C 95 % 1028,1 hPa 0,0 l/m 0,0 km/h (0 Bft) NO 45 5,2 C 6,1 C 0,0 km/h (0 Bft)
22.09.2013 08:30 6,2 C 94 % 1028,2 hPa 0,0 l/m 0,2 km/h (0 Bft) N-NO 22 5,3 C 6,7 C 0,0 km/h (0 Bft)
22.09.2013 08:35 6,6 C 94 % 1028,2 hPa 0,0 l/m 0,2 km/h (0 Bft) O-NO 67 5,7 C 7,0 C 0,0 km/h (0 Bft)
22.09.2013 08:40 7,0 C 94 % 1028,2 hPa 0,0 l/m 0,0 km/h (0 Bft) N-NO 22 6,1 C 7,8 C 0,0 km/h (0 Bft)
22.09.2013 08:45 7,2 C 94 % 1028,2 hPa 0,0 l/m 0,0 km/h (0 Bft) O-NO 67 6,3 C 7,9 C 0,0 km/h (0 Bft)
22.09.2013 08:50 7,5 C 94 % 1028,3 hPa 0,0 l/m 0,0 km/h (0 Bft) NO 45 6,6 C 8,8 C 0,0 km/h (0 Bft)
22.09.2013 08:55 7,9 C 94 % 1028,3 hPa 0,0 l/m 0,0 km/h (0 Bft) O-NO 67 7,0 C 9,2 C 0,0 km/h (0 Bft)
22.09.2013 09:00 8,1 C 93 % 1028,3 hPa 0,0 l/m 0,0 km/h (0 Bft) N-NO 22 7,0 C 9,5 C 0,0 km/h (0 Bft)
22.09.2013 09:05 8,2 C 93 % 1028,3 hPa 0,0 l/m 0,0 km/h (0 Bft) O-NO 67 7,1 C 9,6 C 0,0 km/h (0 Bft)
22.09.2013 09:10 9,0 C 93 % 1028,6 hPa 0,0 l/m 0,0 km/h (0 Bft) O-NO 67 7,9 C 10,1 C 0,0 km/h (0 Bft)
22.09.2013 09:15 9,5 C 93 % 1028,6 hPa 0,0 l/m 0,0 km/h (0 Bft) N-NO 22 8,4 C 10,9 C 0,0 km/h (0 Bft)
22.09.2013 09:20 10,3 C 93 % 1028,6 hPa 0,0 l/m 0,0 km/h (0 Bft) NO 45 9,2 C 11,9 C 0,0 km/h (0 Bft)
22.09.2013 09:25 10,3 C 92 % 1028,6 hPa 0,0 l/m 0,0 km/h (0 Bft) NO 45 9,1 C 12,2 C 0,0 km/h (0 Bft)
22.09.2013 09:30 11,0 C 92 % 1028,5 hPa 0,0 l/m 0,0 km/h (0 Bft) O 90 9,8 C 13,0 C 0,0 km/h (0 Bft)
22.09.2013 09:35 11,3 C 91 % 1028,5 hPa 0,0 l/m 0,0 km/h (0 Bft) NO 45 9,9 C 13,3 C 0,0 km/h (0 Bft)
22.09.2013 09:40 11,8 C 91 % 1028,5 hPa 0,0 l/m 0,0 km/h (0 Bft) O-NO 67 10,4 C 14,1 C 0,0 km/h (0 Bft)
22.09.2013 09:45 12,0 C 91 % 1028,5 hPa 0,0 l/m 0,0 km/h (0 Bft) O 90 10,6 C 14,4 C 0,0 km/h (0 Bft)
22.09.2013 09:50 12,1 C 89 % 1028,6 hPa 0,0 l/m 0,0 km/h (0 Bft) O-NO 67 10,3 C 15,2 C 0,0 km/h (0 Bft)
22.09.2013 09:55 11,9 C 89 % 1028,6 hPa 0,0 l/m 0,0 km/h (0 Bft) NO 45 10,1 C 15,2 C 0,0 km/h (0 Bft)
22.09.2013 10:00 12,3 C 88 % 1028,6 hPa 0,0 l/m 0,0 km/h (0 Bft) NO 45 10,4 C 15,6 C 0,0 km/h (0 Bft)
22.09.2013 10:05 12,6 C 87 % 1028,6 hPa 0,0 l/m 0,0 km/h (0 Bft) O-NO 67 10,5 C 15,7 C 0,0 km/h (0 Bft)
22.09.2013 10:10 14,3 C 83 % 1028,8 hPa 0,0 l/m 0,0 km/h (0 Bft) NO 45 11,5 C 17,4 C 0,0 km/h (0 Bft)
22.09.2013 10:15 14,1 C 82 % 1028,8 hPa 0,0 l/m 0,0 km/h (0 Bft) O-SO 112 11,1 C 17,7 C 0,0 km/h (0 Bft)
22.09.2013 10:20 13,7 C 83 % 1028,8 hPa 0,0 l/m 0,2 km/h (0 Bft) NO 45 10,9 C 17,5 C 0,0 km/h (0 Bft)
22.09.2013 10:25 14,1 C 83 % 1028,8 hPa 0,0 l/m 0,2 km/h (0 Bft) NO 45 11,3 C 17,5 C 0,0 km/h (0 Bft)
22.09.2013 10:30 14,8 C 81 % 1028,9 hPa 0,0 l/m 0,0 km/h (0 Bft) O-NO 67 11,6 C 18,1 C 0,0 km/h (0 Bft)
22.09.2013 10:35 15,1 C 77 % 1028,9 hPa 0,0 l/m 0,0 km/h (0 Bft) N 360 11,1 C 18,7 C 0,0 km/h (0 Bft)
22.09.2013 10:40 16,0 C 70 % 1028,9 hPa 0,0 l/m 0,0 km/h (0 Bft) O-NO 67 10,5 C 19,3 C 0,0 km/h (0 Bft)
22.09.2013 10:45 16,0 C 72 % 1028,9 hPa 0,0 l/m 0,0 km/h (0 Bft) O 90 11,0 C 19,2 C 0,0 km/h (0 Bft)
22.09.2013 10:50 16,1 C 70 % 1029,2 hPa 0,0 l/m 0,2 km/h (0 Bft) S 180 10,6 C 18,7 C 2,1 km/h (1 Bft)
22.09.2013 10:55 16,8 C 75 % 1029,2 hPa 0,0 l/m 0,2 km/h (0 Bft) W-SW 247 12,3 C 18,2 C 1,8 km/h (1 Bft)
22.09.2013 11:00 17,2 C 67 % 1029,2 hPa 0,0 l/m 0,2 km/h (0 Bft) N-NO 22 11,0 C 17,8 C 0,0 km/h (0 Bft)
22.09.2013 11:05 17,0 C 70 % 1029,2 hPa 0,0 l/m 0,0 km/h (0 Bft) NO 45 11,5 C 17,6 C 0,0 km/h (0 Bft)
22.09.2013 11:10 16,4 C 73 % 1029,8 hPa 0,0 l/m 1,1 km/h (1 Bft) O-SO 112 11,5 C 17,3 C 3,9 km/h (1 Bft)
22.09.2013 11:15 16,5 C 78 % 1029,8 hPa 0,0 l/m 1,4 km/h (1 Bft) SO 135 12,6 C 17,1 C 0,0 km/h (0 Bft)
22.09.2013 11:20 16,3 C 77 % 1029,8 hPa 0,0 l/m 0,8 km/h (0 Bft) O-SO 112 12,3 C 17,2 C 0,0 km/h (0 Bft)
22.09.2013 11:25 16,5 C 78 % 1029,8 hPa 0,0 l/m 0,5 km/h (0 Bft) O 90 12,6 C 17,4 C 0,0 km/h (0 Bft)
22.09.2013 11:30 16,8 C 78 % 1029,9 hPa 0,0 l/m 0,5 km/h (0 Bft) O-NO 67 12,9 C 18,3 C 0,0 km/h (0 Bft)
22.09.2013 11:35 17,2 C 72 % 1029,9 hPa 0,0 l/m 1,4 km/h (1 Bft) W-SW 247 12,1 C 18,7 C 4,0 km/h (1 Bft)
22.09.2013 11:40 17,8 C 69 % 1029,9 hPa 0,0 l/m 1,4 km/h (1 Bft) N 360 12,0 C 19,0 C 6,1 km/h (2 Bft)
22.09.2013 11:45 18,1 C 73 % 1029,9 hPa 0,0 l/m 1,4 km/h (1 Bft) N 360 13,2 C 19,4 C 2,3 km/h (1 Bft)
22.09.2013 11:50 17,8 C 57 % 1030,0 hPa 0,0 l/m 2,6 km/h (1 Bft) N 360 9,2 C 20,1 C 7,1 km/h (2 Bft)
22.09.2013 11:55 18,7 C 55 % 1030,0 hPa 0,0 l/m 3,2 km/h (1 Bft) NO 45 9,5 C 20,3 C 4,8 km/h (1 Bft)
22.09.2013 12:00 19,6 C 60 % 1030,0 hPa 0,0 l/m 2,1 km/h (1 Bft) S 180 11,6 C 20,9 C 0,0 km/h (0 Bft)
22.09.2013 12:05 19,0 C 54 % 1030,0 hPa 0,0 l/m 1,3 km/h (1 Bft) NO 45 9,5 C 21,2 C 2,1 km/h (1 Bft)
22.09.2013 12:10 19,0 C 49 % 1029,9 hPa 0,0 l/m 1,0 km/h (0 Bft) S-SO 157 8,0 C 21,6 C 1,8 km/h (1 Bft)
22.09.2013 12:15 19,0 C 49 % 1029,9 hPa 0,0 l/m 1,0 km/h (0 Bft) S-SO 157 8,0 C 21,6 C 1,8 km/h (1 Bft)
22.09.2013 12:20 19,6 C 51 % 1029,9 hPa 0,0 l/m 1,6 km/h (1 Bft) N-NO 22 9,2 C 22,1 C 3,7 km/h (1 Bft)
22.09.2013 12:25 18,7 C 48 % 1029,9 hPa 0,0 l/m 1,4 km/h (1 Bft) N-NW 337 7,5 C 22,1 C 0,0 km/h (0 Bft)
22.09.2013 12:30 19,1 C 49 % 1029,9 hPa 0,0 l/m 2,7 km/h (1 Bft) S-SO 157 8,1 C 22,0 C 7,7 km/h (2 Bft)
22.09.2013 12:35 18,9 C 50 % 1029,9 hPa 0,0 l/m 3,4 km/h (1 Bft) S-SO 157 8,2 C 21,5 C 0,0 km/h (0 Bft)
22.09.2013 12:40 18,8 C 53 % 1029,9 hPa 0,0 l/m 2,6 km/h (1 Bft) W-NW 292 9,0 C 21,4 C 1,6 km/h (1 Bft)
22.09.2013 12:45 18,9 C 54 % 1029,9 hPa 0,0 l/m 1,8 km/h (1 Bft) W-SW 247 9,4 C 21,4 C 3,5 km/h (1 Bft)
22.09.2013 12:50 19,0 C 55 % 1030,0 hPa 0,0 l/m 1,6 km/h (1 Bft) S-SW 202 9,8 C 21,8 C 5,5 km/h (1 Bft)
22.09.2013 12:55 18,6 C 51 % 1030,0 hPa 0,0 l/m 2,4 km/h (1 Bft) W-SW 247 8,3 C 22,0 C 5,5 km/h (1 Bft)
22.09.2013 13:00 18,3 C 53 % 1030,0 hPa 0,0 l/m 3,1 km/h (1 Bft) S-SO 157 8,6 C 22,0 C 1,9 km/h (1 Bft)
22.09.2013 13:05 18,5 C 53 % 1030,0 hPa 0,0 l/m 2,7 km/h (1 Bft) W 270 8,7 C 22,0 C 6,3 km/h (2 Bft)
22.09.2013 13:10 17,7 C 51 % 1029,9 hPa 0,0 l/m 2,7 km/h (1 Bft) NO 45 7,4 C 21,7 C 6,1 km/h (2 Bft)
22.09.2013 13:15 17,2 C 51 % 1029,9 hPa 0,0 l/m 3,1 km/h (1 Bft) N-NO 22 7,0 C 21,5 C 2,6 km/h (1 Bft)
22.09.2013 13:20 17,5 C 53 % 1029,9 hPa 0,0 l/m 2,6 km/h (1 Bft) NW 315 7,8 C 21,4 C 2,1 km/h (1 Bft)
22.09.2013 13:25 17,6 C 56 % 1029,9 hPa 0,0 l/m 2,4 km/h (1 Bft) NO 45 8,7 C 21,5 C 2,4 km/h (1 Bft)
22.09.2013 13:30 18,2 C 53 % 1029,9 hPa 0,0 l/m 2,6 km/h (1 Bft) S-SW 202 8,5 C 21,5 C 5,8 km/h (2 Bft)
22.09.2013 13:35 18,4 C 53 % 1029,9 hPa 0,0 l/m 3,2 km/h (1 Bft) S-SW 202 8,6 C 21,4 C 3,5 km/h (1 Bft)
22.09.2013 13:40 18,6 C 53 % 1029,9 hPa 0,0 l/m 3,1 km/h (1 Bft) S 180 8,8 C 21,6 C 5,5 km/h (1 Bft)
22.09.2013 13:45 18,6 C 50 % 1029,9 hPa 0,0 l/m 2,6 km/h (1 Bft) W-SW 247 8,0 C 21,6 C 2,3 km/h (1 Bft)
22.09.2013 13:50 18,5 C 51 % 1029,7 hPa 0,0 l/m 3,4 km/h (1 Bft) S-SO 157 8,2 C 21,5 C 4,0 km/h (1 Bft)
22.09.2013 13:55 18,5 C 51 % 1029,7 hPa 0,0 l/m 3,1 km/h (1 Bft) O-SO 112 8,2 C 21,6 C 0,0 km/h (0 Bft)
22.09.2013 14:00 19,0 C 52 % 1029,7 hPa 0,0 l/m 1,8 km/h (1 Bft) W-SW 247 8,9 C 22,1 C 0,0 km/h (0 Bft)
22.09.2013 14:05 19,0 C 49 % 1029,7 hPa 0,0 l/m 1,4 km/h (1 Bft) S 180 8,0 C 22,1 C 1,8 km/h (1 Bft)
22.09.2013 14:10 19,6 C 51 % 1029,6 hPa 0,0 l/m 1,8 km/h (1 Bft) W-SW 247 9,2 C 22,6 C 4,8 km/h (1 Bft)
22.09.2013 14:15 19,5 C 49 % 1029,6 hPa 0,0 l/m 2,1 km/h (1 Bft) S 180 8,5 C 22,7 C 2,1 km/h (1 Bft)
22.09.2013 14:20 19,0 C 47 % 1029,6 hPa 0,0 l/m 2,6 km/h (1 Bft) SW 225 7,4 C 23,0 C 4,2 km/h (1 Bft)
22.09.2013 14:25 18,8 C 49 % 1029,6 hPa 0,0 l/m 2,4 km/h (1 Bft) S-SO 157 7,9 C 22,8 C 2,9 km/h (1 Bft)
22.09.2013 14:30 18,7 C 49 % 1029,6 hPa 0,0 l/m 2,1 km/h (1 Bft) W 270 7,8 C 22,7 C 4,3 km/h (1 Bft)
22.09.2013 14:35 18,8 C 49 % 1029,6 hPa 0,0 l/m 1,6 km/h (1 Bft) NW 315 7,9 C 23,0 C 3,2 km/h (1 Bft)
22.09.2013 14:40 18,6 C 49 % 1029,6 hPa 0,0 l/m 2,6 km/h (1 Bft) S-SW 202 7,7 C 22,9 C 2,4 km/h (1 Bft)
22.09.2013 14:45 18,5 C 50 % 1029,6 hPa 0,0 l/m 2,3 km/h (1 Bft) SO 135 7,9 C 22,9 C 0,0 km/h (0 Bft)
22.09.2013 14:50 18,3 C 51 % 1029,4 hPa 0,0 l/m 1,8 km/h (1 Bft) S 180 8,0 C 23,3 C 3,9 km/h (1 Bft)
22.09.2013 14:55 17,9 C 52 % 1029,4 hPa 0,0 l/m 2,7 km/h (1 Bft) W-NW 292 7,9 C 22,5 C 3,7 km/h (1 Bft)
22.09.2013 15:00 18,0 C 51 % 1029,4 hPa 0,0 l/m 3,4 km/h (1 Bft) S-SW 202 7,7 C 21,6 C 8,9 km/h (2 Bft)
22.09.2013 15:05 17,8 C 50 % 1029,4 hPa 0,0 l/m 3,4 km/h (1 Bft) SW 225 7,2 C 21,7 C 4,3 km/h (1 Bft)
22.09.2013 15:10 17,8 C 51 % 1029,4 hPa 0,0 l/m 1,4 km/h (1 Bft) W-NW 292 7,5 C 22,5 C 1,8 km/h (1 Bft)
22.09.2013 15:15 17,7 C 51 % 1029,4 hPa 0,0 l/m 1,8 km/h (1 Bft) S-SW 202 7,4 C 22,4 C 3,9 km/h (1 Bft)
22.09.2013 15:20 17,5 C 50 % 1029,4 hPa 0,0 l/m 3,1 km/h (1 Bft) W-NW 292 7,0 C 21,7 C 2,3 km/h (1 Bft)
22.09.2013 15:25 17,3 C 50 % 1029,4 hPa 0,0 l/m 2,7 km/h (1 Bft) N-NO 22 6,8 C 21,7 C 0,0 km/h (0 Bft)
22.09.2013 15:30 17,5 C 51 % 1029,2 hPa 0,0 l/m 0,8 km/h (0 Bft) W-SW 247 7,3 C 22,4 C 4,0 km/h (1 Bft)
22.09.2013 15:35 17,8 C 50 % 1029,2 hPa 0,0 l/m 1,4 km/h (1 Bft) O 90 7,2 C 22,7 C 2,4 km/h (1 Bft)
22.09.2013 15:40 17,9 C 51 % 1029,2 hPa 0,0 l/m 2,6 km/h (1 Bft) W-SW 247 7,6 C 22,8 C 2,9 km/h (1 Bft)
22.09.2013 15:45 17,9 C 48 % 1029,2 hPa 0,0 l/m 2,3 km/h (1 Bft) W-SW 247 6,7 C 22,8 C 2,1 km/h (1 Bft)
22.09.2013 15:50 17,7 C 49 % 1029,1 hPa 0,0 l/m 2,1 km/h (1 Bft) S 180 6,9 C 22,6 C 4,0 km/h (1 Bft)
22.09.2013 15:55 18,0 C 48 % 1029,1 hPa 0,0 l/m 2,7 km/h (1 Bft) W-SW 247 6,8 C 22,4 C 3,7 km/h (1 Bft)
22.09.2013 16:00 18,0 C 46 % 1029,1 hPa 0,0 l/m 3,1 km/h (1 Bft) W 270 6,2 C 22,9 C 4,0 km/h (1 Bft)
22.09.2013 16:05 17,8 C 48 % 1029,1 hPa 0,0 l/m 3,1 km/h (1 Bft) W-SW 247 6,6 C 22,9 C 2,6 km/h (1 Bft)
22.09.2013 16:10 17,6 C 50 % 1029,1 hPa 0,0 l/m 3,5 km/h (1 Bft) S 180 7,1 C 22,2 C 5,0 km/h (1 Bft)
22.09.2013 16:15 17,5 C 51 % 1029,1 hPa 0,0 l/m 3,5 km/h (1 Bft) S-SO 157 7,3 C 21,6 C 4,8 km/h (1 Bft)
22.09.2013 16:20 17,4 C 53 % 1029,1 hPa 0,0 l/m 2,4 km/h (1 Bft) O 90 7,7 C 21,4 C 2,9 km/h (1 Bft)
22.09.2013 16:25 17,6 C 53 % 1029,1 hPa 0,0 l/m 1,9 km/h (1 Bft) S 180 7,9 C 21,6 C 2,4 km/h (1 Bft)
22.09.2013 16:30 17,8 C 50 % 1029,1 hPa 0,0 l/m 2,6 km/h (1 Bft) S 180 7,2 C 21,8 C 2,4 km/h (1 Bft)
22.09.2013 16:35 17,8 C 53 % 1029,1 hPa 0,0 l/m 2,9 km/h (1 Bft) S 180 8,1 C 21,7 C 1,6 km/h (1 Bft)
22.09.2013 16:40 17,6 C 54 % 1029,1 hPa 0,0 l/m 2,3 km/h (1 Bft) S-SO 157 8,2 C 22,0 C 6,4 km/h (2 Bft)
22.09.2013 16:45 17,7 C 55 % 1029,1 hPa 0,0 l/m 2,3 km/h (1 Bft) S-SW 202 8,5 C 21,9 C 3,9 km/h (1 Bft)
22.09.2013 16:50 17,2 C 55 % 1028,9 hPa 0,0 l/m 2,1 km/h (1 Bft) W-SW 247 8,1 C 21,5 C 0,0 km/h (0 Bft)
22.09.2013 16:55 17,3 C 55 % 1028,9 hPa 0,0 l/m 2,1 km/h (1 Bft) S-SW 202 8,2 C 21,1 C 2,9 km/h (1 Bft)
22.09.2013 17:00 17,1 C 56 % 1028,9 hPa 0,0 l/m 2,9 km/h (1 Bft) S-SO 157 8,3 C 20,6 C 3,1 km/h (1 Bft)
22.09.2013 17:05 16,9 C 57 % 1028,9 hPa 0,0 l/m 3,2 km/h (1 Bft) S 180 8,3 C 20,5 C 3,5 km/h (1 Bft)
22.09.2013 17:10 16,8 C 58 % 1028,7 hPa 0,0 l/m 1,9 km/h (1 Bft) SW 225 8,5 C 20,5 C 2,7 km/h (1 Bft)
22.09.2013 17:15 16,6 C 59 % 1028,7 hPa 0,0 l/m 2,3 km/h (1 Bft) S-SW 202 8,6 C 20,3 C 3,5 km/h (1 Bft)
22.09.2013 17:20 16,3 C 59 % 1028,7 hPa 0,0 l/m 2,6 km/h (1 Bft) S 180 8,3 C 19,8 C 3,5 km/h (1 Bft)
22.09.2013 17:25 16,2 C 59 % 1028,7 hPa 0,0 l/m 2,1 km/h (1 Bft) S-SW 202 8,2 C 19,7 C 0,0 km/h (0 Bft)
22.09.2013 17:30 16,1 C 60 % 1028,2 hPa 0,0 l/m 0,6 km/h (0 Bft) O-NO 67 8,3 C 19,9 C 2,3 km/h (1 Bft)
22.09.2013 17:35 16,0 C 60 % 1028,2 hPa 0,0 l/m 0,6 km/h (0 Bft) O-SO 112 8,2 C 20,2 C 0,0 km/h (0 Bft)
22.09.2013 17:40 15,9 C 61 % 1028,2 hPa 0,0 l/m 0,8 km/h (0 Bft) SO 135 8,4 C 20,8 C 0,0 km/h (0 Bft)
22.09.2013 17:45 15,8 C 62 % 1028,2 hPa 0,0 l/m 0,6 km/h (0 Bft) SO 135 8,5 C 20,9 C 0,0 km/h (0 Bft)
22.09.2013 17:50 15,5 C 62 % 1028,1 hPa 0,0 l/m 1,4 km/h (1 Bft) O-NO 67 8,3 C 19,8 C 1,9 km/h (1 Bft)
22.09.2013 17:55 15,3 C 62 % 1028,1 hPa 0,0 l/m 1,8 km/h (1 Bft) O-NO 67 8,1 C 19,2 C 2,1 km/h (1 Bft)
22.09.2013 18:00 14,9 C 63 % 1028,1 hPa 0,0 l/m 1,8 km/h (1 Bft) O-NO 67 7,9 C 18,6 C 2,1 km/h (1 Bft)
22.09.2013 18:05 14,8 C 64 % 1028,1 hPa 0,0 l/m 1,6 km/h (1 Bft) O 90 8,1 C 18,6 C 2,3 km/h (1 Bft)
22.09.2013 18:10 14,5 C 66 % 1027,9 hPa 0,0 l/m 1,1 km/h (1 Bft) O-NO 67 8,2 C 19,0 C 1,6 km/h (1 Bft)
22.09.2013 18:15 14,3 C 68 % 1027,9 hPa 0,0 l/m 0,5 km/h (0 Bft) O-NO 67 8,5 C 19,1 C 0,0 km/h (0 Bft)
22.09.2013 18:20 13,9 C 69 % 1027,9 hPa 0,0 l/m 0,2 km/h (0 Bft) O-NO 67 8,3 C 18,7 C 0,0 km/h (0 Bft)
22.09.2013 18:25 13,6 C 70 % 1027,9 hPa 0,0 l/m 0,2 km/h (0 Bft) O-NO 67 8,2 C 18,5 C 1,6 km/h (1 Bft)
22.09.2013 18:30 13,5 C 71 % 1027,9 hPa 0,0 l/m 1,1 km/h (1 Bft) W-NW 292 8,3 C 18,7 C 2,4 km/h (1 Bft)
22.09.2013 18:35 13,4 C 71 % 1027,9 hPa 0,0 l/m 1,8 km/h (1 Bft) O-NO 67 8,3 C 18,1 C 2,9 km/h (1 Bft)
22.09.2013 18:40 13,2 C 70 % 1027,9 hPa 0,0 l/m 2,9 km/h (1 Bft) O-NO 67 7,9 C 16,8 C 3,7 km/h (1 Bft)
22.09.2013 18:45 13,1 C 71 % 1027,9 hPa 0,0 l/m 3,1 km/h (1 Bft) O 90 8,0 C 16,8 C 3,4 km/h (1 Bft)
22.09.2013 18:50 12,9 C 72 % 1027,8 hPa 0,0 l/m 3,1 km/h (1 Bft) O-NO 67 8,0 C 16,8 C 2,4 km/h (1 Bft)
22.09.2013 18:55 12,8 C 72 % 1027,8 hPa 0,0 l/m 2,9 km/h (1 Bft) O-NO 67 7,9 C 16,8 C 2,6 km/h (1 Bft)
22.09.2013 19:00 12,6 C 73 % 1027,8 hPa 0,0 l/m 2,3 km/h (1 Bft) O 90 7,9 C 16,4 C 0,0 km/h (0 Bft)
22.09.2013 19:05 12,4 C 73 % 1027,8 hPa 0,0 l/m 1,9 km/h (1 Bft) O 90 7,7 C 16,3 C 0,0 km/h (0 Bft)
22.09.2013 19:10 12,2 C 73 % 1027,8 hPa 0,0 l/m 0,5 km/h (0 Bft) O 90 7,5 C 14,8 C 1,9 km/h (1 Bft)
22.09.2013 19:15 12,1 C 74 % 1027,8 hPa 0,0 l/m 1,0 km/h (0 Bft) NO 45 7,6 C 13,9 C 2,1 km/h (1 Bft)
22.09.2013 19:20 11,7 C 75 % 1027,8 hPa 0,0 l/m 1,9 km/h (1 Bft) O 90 7,4 C 12,9 C 2,9 km/h (1 Bft)
22.09.2013 19:25 11,3 C 76 % 1027,8 hPa 0,0 l/m 1,9 km/h (1 Bft) O 90 7,2 C 12,6 C 0,0 km/h (0 Bft)
22.09.2013 19:30 11,2 C 77 % 1027,8 hPa 0,0 l/m 1,6 km/h (1 Bft) O 90 7,3 C 11,7 C 4,2 km/h (1 Bft)
22.09.2013 19:35 11,3 C 78 % 1027,8 hPa 0,0 l/m 2,6 km/h (1 Bft) O-SO 112 7,6 C 11,5 C 3,9 km/h (1 Bft)
22.09.2013 19:40 11,4 C 79 % 1027,8 hPa 0,0 l/m 4,2 km/h (1 Bft) NO 45 7,9 C 11,4 C 3,5 km/h (1 Bft)
22.09.2013 19:45 11,4 C 79 % 1027,8 hPa 0,0 l/m 3,7 km/h (1 Bft) NO 45 7,9 C 11,3 C 2,4 km/h (1 Bft)
22.09.2013 19:50 11,0 C 79 % 1027,8 hPa 0,0 l/m 3,7 km/h (1 Bft) NO 45 7,5 C 11,0 C 4,0 km/h (1 Bft)
22.09.2013 19:55 10,6 C 79 % 1027,8 hPa 0,0 l/m 3,2 km/h (1 Bft) O 90 7,1 C 10,8 C 2,1 km/h (1 Bft)
22.09.2013 20:00 10,6 C 81 % 1027,8 hPa 0,0 l/m 1,6 km/h (1 Bft) O 90 7,5 C 10,5 C 1,8 km/h (1 Bft)
22.09.2013 20:05 10,7 C 81 % 1027,8 hPa 0,0 l/m 1,4 km/h (1 Bft) NO 45 7,6 C 10,4 C 2,3 km/h (1 Bft)
22.09.2013 20:10 10,6 C 81 % 1027,7 hPa 0,0 l/m 2,7 km/h (1 Bft) O 90 7,5 C 10,3 C 2,7 km/h (1 Bft)
22.09.2013 20:15 10,4 C 81 % 1027,7 hPa 0,0 l/m 1,9 km/h (1 Bft) O 90 7,3 C 10,1 C 0,0 km/h (0 Bft)
22.09.2013 20:20 10,1 C 82 % 1027,7 hPa 0,0 l/m 0,5 km/h (0 Bft) O 90 7,2 C 9,8 C 1,9 km/h (1 Bft)
22.09.2013 20:25 10,1 C 83 % 1027,7 hPa 0,0 l/m 0,5 km/h (0 Bft) O 90 7,3 C 9,7 C 2,4 km/h (1 Bft)
22.09.2013 20:30 9,8 C 83 % 1027,9 hPa 0,0 l/m 0,5 km/h (0 Bft) O 90 7,1 C 9,4 C 0,0 km/h (0 Bft)
22.09.2013 20:35 9,7 C 83 % 1027,9 hPa 0,0 l/m 0,6 km/h (0 Bft) O 90 7,0 C 9,2 C 2,1 km/h (1 Bft)
22.09.2013 20:40 9,7 C 84 % 1027,9 hPa 0,0 l/m 1,3 km/h (1 Bft) O 90 7,1 C 9,3 C 2,9 km/h (1 Bft)
22.09.2013 20:45 9,7 C 84 % 1027,9 hPa 0,0 l/m 1,8 km/h (1 Bft) O 90 7,1 C 9,3 C 2,6 km/h (1 Bft)
22.09.2013 20:50 9,7 C 85 % 1028,1 hPa 0,0 l/m 2,9 km/h (1 Bft) O 90 7,3 C 9,4 C 5,0 km/h (1 Bft)
22.09.2013 20:55 9,5 C 85 % 1028,1 hPa 0,0 l/m 3,2 km/h (1 Bft) O 90 7,1 C 9,4 C 3,9 km/h (1 Bft)
22.09.2013 21:00 9,5 C 85 % 1028,1 hPa 0,0 l/m 3,2 km/h (1 Bft) NO 45 7,1 C 9,3 C 3,4 km/h (1 Bft)
22.09.2013 21:05 9,5 C 85 % 1028,1 hPa 0,0 l/m 3,1 km/h (1 Bft) O-SO 112 7,1 C 9,2 C 3,5 km/h (1 Bft)
22.09.2013 21:10 9,4 C 86 % 1028,1 hPa 0,0 l/m 2,9 km/h (1 Bft) NW 315 7,2 C 9,2 C 3,1 km/h (1 Bft)
22.09.2013 21:15 9,4 C 86 % 1028,1 hPa 0,0 l/m 2,7 km/h (1 Bft) NO 45 7,2 C 9,2 C 3,1 km/h (1 Bft)
22.09.2013 21:20 9,4 C 86 % 1028,1 hPa 0,0 l/m 3,1 km/h (1 Bft) O 90 7,2 C 9,2 C 3,1 km/h (1 Bft)
22.09.2013 21:25 9,3 C 86 % 1028,1 hPa 0,0 l/m 3,1 km/h (1 Bft) O 90 7,1 C 9,2 C 3,4 km/h (1 Bft)
22.09.2013 21:30 9,1 C 86 % 1028,1 hPa 0,0 l/m 3,2 km/h (1 Bft) O 90 6,9 C 9,0 C 3,2 km/h (1 Bft)
22.09.2013 21:35 9,0 C 86 % 1028,1 hPa 0,0 l/m 3,1 km/h (1 Bft) O 90 6,8 C 8,9 C 3,1 km/h (1 Bft)
22.09.2013 21:40 8,9 C 87 % 1028,1 hPa 0,0 l/m 2,6 km/h (1 Bft) O-SO 112 6,9 C 8,8 C 1,8 km/h (1 Bft)
22.09.2013 21:45 8,9 C 87 % 1028,1 hPa 0,0 l/m 2,6 km/h (1 Bft) O-SO 112 6,9 C 8,7 C 2,1 km/h (1 Bft)
22.09.2013 21:50 8,6 C 87 % 1028,1 hPa 0,0 l/m 1,9 km/h (1 Bft) O-SO 112 6,6 C 8,5 C 0,0 km/h (0 Bft)
22.09.2013 21:55 8,5 C 87 % 1028,1 hPa 0,0 l/m 1,3 km/h (1 Bft) O-NO 67 6,5 C 8,4 C 0,0 km/h (0 Bft)
22.09.2013 22:00 8,3 C 88 % 1028,1 hPa 0,0 l/m 0,2 km/h (0 Bft) O-SO 112 6,4 C 8,3 C 0,0 km/h (0 Bft)
22.09.2013 22:05 8,2 C 88 % 1028,1 hPa 0,0 l/m 0,0 km/h (0 Bft) O-SO 112 6,3 C 8,3 C 0,0 km/h (0 Bft)
22.09.2013 22:10 8,2 C 88 % 1028,0 hPa 0,0 l/m 0,0 km/h (0 Bft) O-SO 112 6,3 C 8,0 C 0,0 km/h (0 Bft)
22.09.2013 22:15 8,1 C 88 % 1028,0 hPa 0,0 l/m 0,0 km/h (0 Bft) O-SO 112 6,2 C 8,0 C 0,0 km/h (0 Bft)
22.09.2013 22:20 7,9 C 88 % 1028,0 hPa 0,0 l/m 0,0 km/h (0 Bft) O 90 6,0 C 7,8 C 0,0 km/h (0 Bft)
22.09.2013 22:25 7,8 C 88 % 1028,0 hPa 0,0 l/m 0,0 km/h (0 Bft) O-NO 67 5,9 C 7,8 C 0,0 km/h (0 Bft)
22.09.2013 22:30 7,7 C 88 % 1028,2 hPa 0,0 l/m 0,2 km/h (0 Bft) O-SO 112 5,8 C 7,7 C 0,0 km/h (0 Bft)
22.09.2013 22:35 7,4 C 88 % 1028,2 hPa 0,0 l/m 0,2 km/h (0 Bft) O-SO 112 5,5 C 7,7 C 0,0 km/h (0 Bft)
22.09.2013 22:40 7,4 C 88 % 1028,2 hPa 0,0 l/m 0,0 km/h (0 Bft) W-NW 292 5,5 C 7,5 C 0,0 km/h (0 Bft)
22.09.2013 22:45 7,6 C 88 % 1028,2 hPa 0,0 l/m 0,0 km/h (0 Bft) W-NW 292 5,7 C 7,4 C 0,0 km/h (0 Bft)
22.09.2013 22:50 7,4 C 89 % 1028,2 hPa 0,0 l/m 0,0 km/h (0 Bft) O-SO 112 5,7 C 7,3 C 0,0 km/h (0 Bft)
22.09.2013 22:55 7,3 C 89 % 1028,2 hPa 0,0 l/m 0,0 km/h (0 Bft) O-SO 112 5,6 C 7,2 C 0,0 km/h (0 Bft)
22.09.2013 23:00 7,2 C 89 % 1028,2 hPa 0,0 l/m 0,0 km/h (0 Bft) O 90 5,5 C 7,1 C 0,0 km/h (0 Bft)
22.09.2013 23:05 7,2 C 89 % 1028,2 hPa 0,0 l/m 0,0 km/h (0 Bft) O 90 5,5 C 7,1 C 0,0 km/h (0 Bft)
22.09.2013 23:10 6,9 C 89 % 1027,9 hPa 0,0 l/m 0,0 km/h (0 Bft) S 180 5,2 C 7,1 C 0,0 km/h (0 Bft)
22.09.2013 23:15 7,0 C 89 % 1027,9 hPa 0,0 l/m 0,0 km/h (0 Bft) O-SO 112 5,3 C 7,1 C 0,0 km/h (0 Bft)
22.09.2013 23:20 6,9 C 89 % 1027,9 hPa 0,0 l/m 0,0 km/h (0 Bft) S-SW 202 5,2 C 7,1 C 0,0 km/h (0 Bft)
22.09.2013 23:25 7,0 C 89 % 1027,9 hPa 0,0 l/m 0,0 km/h (0 Bft) O-SO 112 5,3 C 7,1 C 0,0 km/h (0 Bft)
22.09.2013 23:30 7,0 C 89 % 1028,0 hPa 0,0 l/m 0,0 km/h (0 Bft) O-NO 67 5,3 C 7,1 C 0,0 km/h (0 Bft)
22.09.2013 23:35 6,8 C 90 % 1028,0 hPa 0,0 l/m 0,0 km/h (0 Bft) S 180 5,3 C 7,2 C 0,0 km/h (0 Bft)
22.09.2013 23:40 6,7 C 90 % 1028,0 hPa 0,0 l/m 0,0 km/h (0 Bft) O 90 5,2 C 7,1 C 0,0 km/h (0 Bft)
22.09.2013 23:45 6,7 C 90 % 1028,0 hPa 0,0 l/m 0,0 km/h (0 Bft) O 90 5,2 C 7,0 C 0,0 km/h (0 Bft)
22.09.2013 23:50 6,7 C 90 % 1028,0 hPa 0,0 l/m 0,0 km/h (0 Bft) SW 225 5,2 C 6,8 C 0,0 km/h (0 Bft)
22.09.2013 23:55 6,6 C 90 % 1028,0 hPa 0,0 l/m 0,0 km/h (0 Bft) SW 225 5,1 C 6,8 C 0,0 km/h (0 Bft)
_ Min-Zeit 07:20 16:00 20:25 - 23:55 - - 07:20 07:25 23:55
Minimum _ 3,3 C 46 % 1027,7 hPa - 0,0 km/h (0 Bft) - - 2,4 C 3,2 C 0,0 km/h (0 Bft)
_ Max-Zeit 14:10 08:25 13:05 23:55 19:40 - - 11:45 14:50 15:00
Maximum _ 19,6 C 95 % 1030,0 hPa 0,0 l/m 4,2 km/h
NO (1 Bft)
- - 13,2 C 23,3 C 8,9 km/h
S-SW (2 Bft)
Durchschnitt _ 10,5 C 79 % 1028,5 hPa #0,0 l/m 1,0 km/h (0 Bft) O - 6,4 C 11,9 C 1,2 km/h (1 Bft)